Time;durP1;ratioP1;P1;durP2;ratioP2;P2;SDS_P1;SDS_P2;PMS_P1;PMS_P2;Temp;Humidity;BMP_temperature;BMP_pressure;BME280_temperature;BME280_humidity;BME280_pressure;Samples;Min_cycle;Max_cycle;Signal;HPM_P1;HPM_P2
2023/01/09 13:17:10;;;;;;;2.55;1.15;;;13.20;47.60;;;;;;21333862;22;20515;-62
2023/01/09 13:27:21;;;;;;;3.40;1.75;;;13.40;46.30;;;;;;20995806;28;20536;-62
2023/01/09 13:37:28;;;;;;;3.97;1.17;;;13.30;46.90;;;;;;20995232;28;20050;-61
2023/01/09 13:47:30;;;;;;;3.70;1.13;;;13.50;46.30;;;;;;21008667;28;20125;-62
2023/01/09 13:57:36;;;;;;;3.60;1.02;;;13.50;47.30;;;;;;20993507;28;20468;-61
2023/01/09 14:07:48;;;;;;;4.43;1.20;;;13.60;47.00;;;;;;21010956;28;20062;-61
2023/01/09 14:17:58;;;;;;;3.00;1.30;;;13.60;46.90;;;;;;21009309;28;20055;-61
2023/01/09 14:28:02;;;;;;;6.00;3.88;;;13.70;46.20;;;;;;21008614;28;20385;-61
2023/01/09 14:38:12;;;;;;;5.60;1.85;;;13.60;46.50;;;;;;21008366;28;20045;-62
2023/01/09 14:48:15;;;;;;;2.25;1.20;;;13.50;46.90;;;;;;21007136;28;20060;-63
2023/01/09 14:58:28;;;;;;;2.85;1.00;;;13.40;45.90;;;;;;21005231;28;20072;-62
2023/01/09 15:08:31;;;;;;;4.15;2.08;;;13.30;46.60;;;;;;21006149;28;20057;-61
2023/01/09 15:18:40;;;;;;;3.10;1.02;;;13.30;47.30;;;;;;21005262;28;20048;-62
2023/01/09 15:28:42;;;;;;;3.45;1.70;;;13.20;47.60;;;;;;21004861;28;20047;-61
2023/01/09 15:38:45;;;;;;;2.72;1.25;;;13.10;47.70;;;;;;21003680;28;20048;-62
2023/01/09 15:48:53;;;;;;;6.50;2.30;;;13.00;48.30;;;;;;21002460;28;20090;-61
2023/01/09 15:58:58;;;;;;;7.47;2.50;;;13.00;49.10;;;;;;21001306;28;20150;-62
2023/01/09 16:09:00;;;;;;;5.40;1.83;;;12.90;49.80;;;;;;21001040;28;20488;-60
2023/01/09 16:19:02;;;;;;;7.65;2.20;;;12.80;50.20;;;;;;20982043;28;20114;-61
2023/01/09 16:29:46;;;;;;;4.90;1.42;;;12.70;49.70;;;;;;20999313;28;20055;-61
2023/01/09 16:40:21;;;;;;;5.72;1.63;;;12.70;50.40;;;;;;20743823;28;20054;-60
2023/01/09 16:50:24;;;;;;;7.88;1.90;;;12.60;51.10;;;;;;20742276;28;20530;-61
2023/01/09 17:00:26;;;;;;;7.35;2.33;;;12.40;51.90;;;;;;20742109;28;20140;-61
2023/01/09 17:10:31;;;;;;;4.97;2.30;;;12.30;51.20;;;;;;20806002;28;20056;-61
2023/01/09 17:20:34;;;;;;;7.47;2.92;;;12.20;51.60;;;;;;20995391;28;20057;-60
2023/01/09 17:30:36;;;;;;;8.55;3.40;;;12.30;52.40;;;;;;20977655;28;20115;-61
2023/01/09 17:40:38;;;;;;;7.93;2.72;;;12.20;52.00;;;;;;20995461;28;20056;-61
2023/01/09 17:50:40;;;;;;;7.05;2.38;;;12.20;52.30;;;;;;20994535;28;20072;-62
2023/01/09 18:00:42;;;;;;;6.40;2.22;;;12.00;52.50;;;;;;20993514;28;20102;-62
2023/01/09 18:10:47;;;;;;;7.10;2.50;;;11.80;52.60;;;;;;20994765;28;20506;-62
2023/01/09 18:20:49;;;;;;;6.47;2.53;;;11.70;53.30;;;;;;20992835;28;20053;-63
2023/01/09 18:30:51;;;;;;;11.40;2.92;;;11.60;54.00;;;;;;21000841;28;20044;-61
2023/01/09 18:41:00;;;;;;;5.82;2.63;;;11.50;54.50;;;;;;21007971;28;20052;-61
2023/01/09 18:51:04;;;;;;;6.15;2.55;;;11.40;54.80;;;;;;21006395;28;20048;-61
2023/01/09 19:01:07;;;;;;;13.83;6.93;;;11.30;55.30;;;;;;21005527;28;20088;-61
2023/01/09 19:11:10;;;;;;;6.63;3.50;;;11.20;56.00;;;;;;21006581;28;20434;-62
2023/01/09 19:21:18;;;;;;;8.93;2.92;;;11.20;56.60;;;;;;21004577;28;20128;-60
2023/01/09 19:31:23;;;;;;;9.20;3.13;;;11.10;57.20;;;;;;21004811;28;20047;-61
2023/01/09 19:41:26;;;;;;;6.28;3.25;;;11.00;57.60;;;;;;21002703;28;20496;-60
2023/01/09 19:51:27;;;;;;;9.90;4.55;;;10.90;58.10;;;;;;21001841;28;20097;-61
2023/01/09 20:01:34;;;;;;;16.30;8.32;;;11.00;58.10;;;;;;21001587;28;20084;-61
2023/01/09 20:11:38;;;;;;;10.80;4.30;;;11.00;58.20;;;;;;21001235;28;20044;-61
2023/01/09 20:21:41;;;;;;;9.43;4.67;;;11.00;57.80;;;;;;20999659;28;20059;-61
2023/01/09 20:31:43;;;;;;;11.38;5.70;;;11.00;57.70;;;;;;20998654;28;20056;-61
2023/01/09 20:41:45;;;;;;;11.75;5.63;;;11.00;57.90;;;;;;20999106;28;20052;-62
2023/01/09 20:51:50;;;;;;;11.80;6.03;;;11.00;57.90;;;;;;20998136;28;20494;-62
2023/01/09 21:01:52;;;;;;;33.85;17.08;;;10.90;58.30;;;;;;20998695;28;20052;-62
2023/01/09 21:11:53;;;;;;;17.30;8.18;;;10.70;59.40;;;;;;20997973;28;20385;-61
2023/01/09 21:21:57;;;;;;;12.07;4.95;;;10.60;59.70;;;;;;20996248;28;20497;-62
2023/01/09 21:31:58;;;;;;;8.73;3.72;;;10.60;59.70;;;;;;20995843;28;20528;-61
2023/01/09 21:52:20;;;;;;;12.40;4.75;;;10.40;60.10;;;;;;20994342;28;20045;-61
2023/01/09 22:02:22;;;;;;;13.45;6.88;;;10.30;60.40;;;;;;20998184;28;20385;-61
2023/01/09 22:12:24;;;;;;;10.60;4.65;;;10.30;60.70;;;;;;21012673;28;20123;-64
2023/01/09 22:22:34;;;;;;;19.38;9.90;;;10.20;60.60;;;;;;21008917;28;20389;-61
2023/01/09 22:32:37;;;;;;;16.85;6.80;;;10.20;61.00;;;;;;21008012;28;20080;-62
2023/01/09 22:42:40;;;;;;;17.05;6.57;;;10.20;61.50;;;;;;21008250;28;20056;-61
2023/01/09 22:52:42;;;;;;;15.15;7.93;;;9.90;62.80;;;;;;21007992;28;20113;-62
2023/01/09 23:02:46;;;;;;;17.75;7.10;;;9.90;63.20;;;;;;21006476;28;20076;-62
2023/01/09 23:12:49;;;;;;;15.07;7.85;;;9.80;64.10;;;;;;21005489;28;20055;-63
2023/01/09 23:22:52;;;;;;;18.38;7.60;;;9.70;65.20;;;;;;21004906;28;20083;-61
2023/01/09 23:32:56;;;;;;;19.60;8.40;;;9.70;65.80;;;;;;21004547;28;20103;-62
2023/01/09 23:43:10;;;;;;;17.30;8.15;;;9.40;66.60;;;;;;21003497;28;20102;-63
2023/01/09 23:53:13;;;;;;;17.95;8.48;;;9.30;67.30;;;;;;21002624;28;20489;-61
